Accueil
METAR-TAF:

METAR-TAF

Aéroports :

Aéroport Riviera Airport

Albenga, Italie

latitude: 44-03N, longitude: 008-07E, altitude: 45 m

Observation

Le bulletin a été fait il y a 9 heures et 14 minutes, à 17:50 UTC
Vent 3 kt de direction variable
Température 25°C
Humidité 54%
Pression 1018 hPa
Visibilité 10 km ou plus
Nuages épars à une hauteur de 5000 ft

METAR: LIMG 261750Z VRB03KT 9999 SCT050 25/15 Q1018

Heure: 05:04 (03:04 UTC)


TAF: absent

Observations et prévisions météorologiques de plus de 4000 aéroports (messages METAR et TAF).

Les stations disponibles sont représentées par des disques jaunes et rouges sur la carte.

Passer la souris dessus pour voir le nom de la station.

Cliquer dessus pour voir les observations et prévisions météorologiques.

Pour changer de carte: cliquez sur les boutons verts avec une croix noire pour zoomer, sur le bouton vert avec un tiret pour effectuer un zoom arrière, ou sur les flèches vertes pour les cartes adjacentes.


METAR-TAF: